sensor_id;sensor_type;location;lat;lon;timestamp;pressure;altitude;pressure_sealevel;temperature;humidity
74675;BME280;63200;48.810;12.352;2023-03-22T00:00:52;97321.88;;;8.53;71.70
74675;BME280;63200;48.810;12.352;2023-03-22T00:03:17;97319.97;;;8.53;71.77
74675;BME280;63200;48.810;12.352;2023-03-22T00:05:43;97322.44;;;8.44;71.45
74675;BME280;63200;48.810;12.352;2023-03-22T00:08:09;97318.91;;;8.39;71.83
74675;BME280;63200;48.810;12.352;2023-03-22T00:10:36;97322.44;;;8.39;71.95
74675;BME280;63200;48.810;12.352;2023-03-22T00:13:03;97315.97;;;8.35;72.01
74675;BME280;63200;48.810;12.352;2023-03-22T00:15:30;97271.09;;;8.08;71.90
74675;BME280;63200;48.810;12.352;2023-03-22T00:17:55;97310.56;;;8.30;71.53
74675;BME280;63200;48.810;12.352;2023-03-22T00:20:23;97287.88;;;8.05;71.75
74675;BME280;63200;48.810;12.352;2023-03-22T00:22:49;97274.63;;;7.98;71.73
74675;BME280;63200;48.810;12.352;2023-03-22T00:25:15;97305.69;;;8.27;71.71
74675;BME280;63200;48.810;12.352;2023-03-22T00:27:40;97310.56;;;8.35;72.05
74675;BME280;63200;48.810;12.352;2023-03-22T00:30:06;97285.38;;;8.29;72.16
74675;BME280;63200;48.810;12.352;2023-03-22T00:32:36;97300.78;;;8.39;71.99
74675;BME280;63200;48.810;12.352;2023-03-22T00:35:05;97298.91;;;8.34;71.93
74675;BME280;63200;48.810;12.352;2023-03-22T00:37:31;97293.50;;;8.29;71.79
74675;BME280;63200;48.810;12.352;2023-03-22T00:40:07;97296.47;;;8.33;72.22
74675;BME280;63200;48.810;12.352;2023-03-22T00:42:37;97290.53;;;8.31;72.36
74675;BME280;63200;48.810;12.352;2023-03-22T00:45:04;97288.38;;;8.28;72.53
74675;BME280;63200;48.810;12.352;2023-03-22T00:47:30;97290.56;;;8.26;72.49
74675;BME280;63200;48.810;12.352;2023-03-22T00:49:55;97292.44;;;8.30;72.62
74675;BME280;63200;48.810;12.352;2023-03-22T00:52:20;97286.72;;;8.32;72.17
74675;BME280;63200;48.810;12.352;2023-03-22T00:54:46;97282.44;;;8.31;72.59
74675;BME280;63200;48.810;12.352;2023-03-22T00:57:12;97277.31;;;8.24;72.65
74675;BME280;63200;48.810;12.352;2023-03-22T00:59:38;97283.78;;;8.28;72.97
74675;BME280;63200;48.810;12.352;2023-03-22T01:02:04;97228.16;;;7.91;72.69
74675;BME280;63200;48.810;12.352;2023-03-22T01:04:32;97287.84;;;8.26;72.66
74675;BME280;63200;48.810;12.352;2023-03-22T01:07:00;97273.78;;;8.18;72.72
74675;BME280;63200;48.810;12.352;2023-03-22T01:09:28;97290.25;;;8.32;72.79
74675;BME280;63200;48.810;12.352;2023-03-22T01:11:56;97281.88;;;8.34;72.14
74675;BME280;63200;48.810;12.352;2023-03-22T01:14:22;97279.97;;;8.34;72.35
74675;BME280;63200;48.810;12.352;2023-03-22T01:16:48;97243.81;;;8.10;72.51
74675;BME280;63200;48.810;12.352;2023-03-22T01:19:13;97266.50;;;8.24;72.50
74675;BME280;63200;48.810;12.352;2023-03-22T01:21:39;97266.75;;;8.17;72.09
74675;BME280;63200;48.810;12.352;2023-03-22T01:24:04;97275.41;;;8.14;72.43
74675;BME280;63200;48.810;12.352;2023-03-22T01:26:30;97272.16;;;8.17;72.74
74675;BME280;63200;48.810;12.352;2023-03-22T01:28:55;97275.69;;;8.23;72.30
74675;BME280;63200;48.810;12.352;2023-03-22T01:31:21;97273.22;;;8.32;72.61
74675;BME280;63200;48.810;12.352;2023-03-22T01:33:46;97274.31;;;8.31;72.64
74675;BME280;63200;48.810;12.352;2023-03-22T01:36:11;97276.47;;;8.29;72.73
74675;BME280;63200;48.810;12.352;2023-03-22T01:38:37;97271.34;;;8.27;72.82
74675;BME280;63200;48.810;12.352;2023-03-22T01:41:02;97270.50;;;8.27;72.68
74675;BME280;63200;48.810;12.352;2023-03-22T01:43:27;97271.06;;;8.24;72.53
74675;BME280;63200;48.810;12.352;2023-03-22T01:45:53;97267.00;;;8.26;72.52
74675;BME280;63200;48.810;12.352;2023-03-22T01:48:34;97267.00;;;8.26;72.17
74675;BME280;63200;48.810;12.352;2023-03-22T01:51:30;97253.22;;;8.23;72.32
74675;BME280;63200;48.810;12.352;2023-03-22T01:53:59;97257.81;;;8.27;72.73
74675;BME280;63200;48.810;12.352;2023-03-22T01:56:30;97248.34;;;8.30;72.98
74675;BME280;63200;48.810;12.352;2023-03-22T01:58:56;97208.41;;;8.01;72.80
74675;BME280;63200;48.810;12.352;2023-03-22T02:01:23;97251.06;;;8.30;72.65
74675;BME280;63200;48.810;12.352;2023-03-22T02:03:52;97259.75;;;8.22;72.92
74675;BME280;63200;48.810;12.352;2023-03-22T02:06:20;97261.34;;;8.17;72.92
74675;BME280;63200;48.810;12.352;2023-03-22T02:08:46;97249.72;;;8.22;72.82
74675;BME280;63200;48.810;12.352;2023-03-22T02:11:15;97254.06;;;8.23;72.30
74675;BME280;63200;48.810;12.352;2023-03-22T02:13:51;97249.16;;;8.20;72.23
74675;BME280;63200;48.810;12.352;2023-03-22T02:25:25;97250.88;;;7.80;72.56
74675;BME280;63200;48.810;12.352;2023-03-22T02:28:10;97249.53;;;7.72;72.99
74675;BME280;63200;48.810;12.352;2023-03-22T02:36:08;97249.00;;;7.60;73.43
74675;BME280;63200;48.810;12.352;2023-03-22T02:47:06;97246.03;;;7.30;73.03
74675;BME280;63200;48.810;12.352;2023-03-22T02:49:42;97236.03;;;7.26;73.00
74675;BME280;63200;48.810;12.352;2023-03-22T02:52:18;97237.63;;;7.06;73.58
74675;BME280;63200;48.810;12.352;2023-03-22T02:57:49;97234.09;;;7.00;74.17
74675;BME280;63200;48.810;12.352;2023-03-22T03:00:18;97236.81;;;7.06;74.44
74675;BME280;63200;48.810;12.352;2023-03-22T03:02:52;97214.41;;;7.00;74.31
74675;BME280;63200;48.810;12.352;2023-03-22T03:05:19;97224.13;;;7.11;74.36
74675;BME280;63200;48.810;12.352;2023-03-22T03:07:49;97236.56;;;7.28;74.58
74675;BME280;63200;48.810;12.352;2023-03-22T03:10:18;97231.97;;;7.28;74.69
74675;BME280;63200;48.810;12.352;2023-03-22T03:12:44;97221.16;;;7.18;74.58
74675;BME280;63200;48.810;12.352;2023-03-22T03:15:14;97240.09;;;7.33;74.70
74675;BME280;63200;48.810;12.352;2023-03-22T03:26:33;97244.38;;;7.09;74.97
74675;BME280;63200;48.810;12.352;2023-03-22T03:32:10;97253.16;;;6.63;75.34
74675;BME280;63200;48.810;12.352;2023-03-22T03:34:44;97251.53;;;6.57;75.42
74675;BME280;63200;48.810;12.352;2023-03-22T03:37:20;97257.19;;;6.55;75.38
74675;BME280;63200;48.810;12.352;2023-03-22T03:39:58;97256.06;;;6.46;75.41
74675;BME280;63200;48.810;12.352;2023-03-22T03:42:26;97212.66;;;5.94;74.60
74675;BME280;63200;48.810;12.352;2023-03-22T03:44:54;97262.28;;;5.98;74.87
74675;BME280;63200;48.810;12.352;2023-03-22T03:47:20;97271.91;;;5.89;75.12
74675;BME280;63200;48.810;12.352;2023-03-22T03:49:45;97254.84;;;5.78;75.44
74675;BME280;63200;48.810;12.352;2023-03-22T03:52:11;97257.50;;;5.73;75.66
74675;BME280;63200;48.810;12.352;2023-03-22T03:54:37;97246.69;;;5.68;75.53
74675;BME280;63200;48.810;12.352;2023-03-22T03:57:03;97244.44;;;5.55;75.50
74675;BME280;63200;48.810;12.352;2023-03-22T03:59:28;97239.78;;;5.45;75.63
74675;BME280;63200;48.810;12.352;2023-03-22T04:01:53;97242.41;;;5.34;75.53
74675;BME280;63200;48.810;12.352;2023-03-22T04:04:21;97236.72;;;5.31;75.44
74675;BME280;63200;48.810;12.352;2023-03-22T04:06:58;97245.06;;;5.29;75.45
74675;BME280;63200;48.810;12.352;2023-03-22T04:09:28;97254.19;;;5.28;75.78
74675;BME280;63200;48.810;12.352;2023-03-22T04:11:55;97211.75;;;5.08;75.25
74675;BME280;63200;48.810;12.352;2023-03-22T04:14:21;97208.34;;;4.86;75.26
74675;BME280;63200;48.810;12.352;2023-03-22T04:16:47;97242.84;;;4.94;75.17
74675;BME280;63200;48.810;12.352;2023-03-22T04:19:13;97234.97;;;4.87;75.45
74675;BME280;63200;48.810;12.352;2023-03-22T04:21:38;97234.59;;;4.78;75.93
74675;BME280;63200;48.810;12.352;2023-03-22T04:24:04;97241.56;;;4.74;76.52
74675;BME280;63200;48.810;12.352;2023-03-22T04:26:30;97244.69;;;4.66;77.73
74675;BME280;63200;48.810;12.352;2023-03-22T04:28:56;97243.00;;;4.60;78.76
74675;BME280;63200;48.810;12.352;2023-03-22T04:31:23;97244.38;;;4.62;79.29
74675;BME280;63200;48.810;12.352;2023-03-22T04:33:48;97247.56;;;4.59;79.36
74675;BME280;63200;48.810;12.352;2023-03-22T04:36:22;97207.19;;;4.32;79.83
74675;BME280;63200;48.810;12.352;2023-03-22T04:38:48;97250.75;;;4.56;79.66
74675;BME280;63200;48.810;12.352;2023-03-22T04:41:13;97246.88;;;4.47;79.17
74675;BME280;63200;48.810;12.352;2023-03-22T04:43:38;97252.69;;;4.39;78.31
74675;BME280;63200;48.810;12.352;2023-03-22T04:46:06;97250.38;;;4.25;77.95
74675;BME280;63200;48.810;12.352;2023-03-22T04:48:35;97247.00;;;4.13;77.21
74675;BME280;63200;48.810;12.352;2023-03-22T04:51:01;97242.63;;;4.07;77.05
74675;BME280;63200;48.810;12.352;2023-03-22T04:53:28;97242.72;;;3.95;76.92
74675;BME280;63200;48.810;12.352;2023-03-22T04:55:54;97240.28;;;3.93;76.83
74675;BME280;63200;48.810;12.352;2023-03-22T04:58:24;97235.72;;;3.94;77.03
74675;BME280;63200;48.810;12.352;2023-03-22T05:00:50;97242.47;;;3.96;77.46
74675;BME280;63200;48.810;12.352;2023-03-22T05:03:19;97229.28;;;3.95;76.90
74675;BME280;63200;48.810;12.352;2023-03-22T05:05:52;97227.75;;;3.99;76.69
74675;BME280;63200;48.810;12.352;2023-03-22T05:08:22;97224.53;;;4.02;77.12
74675;BME280;63200;48.810;12.352;2023-03-22T05:10:51;97223.16;;;3.99;76.88
74675;BME280;63200;48.810;12.352;2023-03-22T05:13:21;97230.22;;;3.83;75.24
74675;BME280;63200;48.810;12.352;2023-03-22T05:15:47;97233.50;;;3.69;75.21
74675;BME280;63200;48.810;12.352;2023-03-22T05:18:19;97244.72;;;3.65;75.55
74675;BME280;63200;48.810;12.352;2023-03-22T05:20:46;97245.59;;;3.71;75.56
74675;BME280;63200;48.810;12.352;2023-03-22T05:23:13;97244.03;;;3.92;75.75
74675;BME280;63200;48.810;12.352;2023-03-22T05:25:39;97247.63;;;4.20;76.69
74675;BME280;63200;48.810;12.352;2023-03-22T05:28:05;97223.69;;;4.19;76.99
74675;BME280;63200;48.810;12.352;2023-03-22T05:30:31;97231.84;;;4.24;77.11
74675;BME280;63200;48.810;12.352;2023-03-22T05:32:58;97249.69;;;4.35;76.87
74675;BME280;63200;48.810;12.352;2023-03-22T05:35:25;97265.09;;;4.40;76.41
74675;BME280;63200;48.810;12.352;2023-03-22T05:37:51;97269.78;;;4.27;75.71
74675;BME280;63200;48.810;12.352;2023-03-22T05:40:17;97264.06;;;4.24;75.97
74675;BME280;63200;48.810;12.352;2023-03-22T05:42:43;97266.66;;;4.36;76.03
74675;BME280;63200;48.810;12.352;2023-03-22T05:45:09;97270.81;;;4.48;75.88
74675;BME280;63200;48.810;12.352;2023-03-22T05:47:34;97269.69;;;4.66;75.35
74675;BME280;63200;48.810;12.352;2023-03-22T05:50:00;97266.47;;;4.92;74.84
74675;BME280;63200;48.810;12.352;2023-03-22T05:52:25;97277.56;;;5.23;74.32
74675;BME280;63200;48.810;12.352;2023-03-22T05:54:51;97267.63;;;5.61;73.31
74675;BME280;63200;48.810;12.352;2023-03-22T05:57:16;97275.25;;;5.69;72.45
74675;BME280;63200;48.810;12.352;2023-03-22T05:59:41;97267.56;;;5.88;71.38
74675;BME280;63200;48.810;12.352;2023-03-22T06:02:06;97268.72;;;5.97;71.46
74675;BME280;63200;48.810;12.352;2023-03-22T06:04:32;97245.94;;;6.15;71.05
74675;BME280;63200;48.810;12.352;2023-03-22T06:06:57;97259.72;;;6.93;70.51
74675;BME280;63200;48.810;12.352;2023-03-22T06:09:22;97259.25;;;7.47;67.76
74675;BME280;63200;48.810;12.352;2023-03-22T06:11:48;97216.31;;;7.72;66.88
74675;BME280;63200;48.810;12.352;2023-03-22T06:14:13;97264.75;;;8.70;65.48
74675;BME280;63200;48.810;12.352;2023-03-22T06:16:38;97266.00;;;9.32;63.31
74675;BME280;63200;48.810;12.352;2023-03-22T06:19:04;97232.28;;;9.49;61.42
74675;BME280;63200;48.810;12.352;2023-03-22T06:21:30;97263.03;;;9.69;60.66
74675;BME280;63200;48.810;12.352;2023-03-22T06:23:56;97271.72;;;9.65;61.38
74675;BME280;63200;48.810;12.352;2023-03-22T06:26:21;97260.69;;;9.57;61.43
74675;BME280;63200;48.810;12.352;2023-03-22T06:28:46;97269.66;;;9.87;61.08
74675;BME280;63200;48.810;12.352;2023-03-22T06:31:12;97266.16;;;10.10;60.28
74675;BME280;63200;48.810;12.352;2023-03-22T06:33:37;97263.94;;;10.47;59.25
74675;BME280;63200;48.810;12.352;2023-03-22T06:36:02;97268.88;;;10.40;59.64
74675;BME280;63200;48.810;12.352;2023-03-22T06:38:29;97270.88;;;11.21;57.77
74675;BME280;63200;48.810;12.352;2023-03-22T06:40:54;97272.69;;;11.63;56.84
74675;BME280;63200;48.810;12.352;2023-03-22T06:43:19;97274.47;;;10.73;58.27
74675;BME280;63200;48.810;12.352;2023-03-22T06:45:46;97274.72;;;11.72;56.84
74675;BME280;63200;48.810;12.352;2023-03-22T06:48:12;97266.53;;;12.38;54.85
74675;BME280;63200;48.810;12.352;2023-03-22T06:50:37;97235.56;;;12.33;54.77
74675;BME280;63200;48.810;12.352;2023-03-22T06:53:04;97274.50;;;12.62;54.44
74675;BME280;63200;48.810;12.352;2023-03-22T06:55:30;97268.06;;;12.44;54.80
74675;BME280;63200;48.810;12.352;2023-03-22T06:58:02;97277.28;;;13.12;53.42
74675;BME280;63200;48.810;12.352;2023-03-22T07:00:28;97275.25;;;11.88;56.40
74675;BME280;63200;48.810;12.352;2023-03-22T07:02:54;97283.94;;;13.57;54.19
74675;BME280;63200;48.810;12.352;2023-03-22T07:05:19;97271.22;;;15.01;50.04
74675;BME280;63200;48.810;12.352;2023-03-22T07:07:44;97269.44;;;16.19;47.45
74675;BME280;63200;48.810;12.352;2023-03-22T07:10:10;97271.66;;;16.25;46.72
74675;BME280;63200;48.810;12.352;2023-03-22T07:12:35;97274.09;;;14.95;49.73
74675;BME280;63200;48.810;12.352;2023-03-22T07:15:01;97268.50;;;15.62;48.55
74675;BME280;63200;48.810;12.352;2023-03-22T07:17:26;97263.44;;;16.25;47.16
74675;BME280;63200;48.810;12.352;2023-03-22T07:19:52;97273.25;;;16.74;46.08
74675;BME280;63200;48.810;12.352;2023-03-22T07:22:17;97269.53;;;17.08;45.67
74675;BME280;63200;48.810;12.352;2023-03-22T07:24:46;97259.56;;;16.74;46.05
74675;BME280;63200;48.810;12.352;2023-03-22T07:27:12;97258.31;;;17.43;44.95
74675;BME280;63200;48.810;12.352;2023-03-22T07:29:37;97265.78;;;16.44;46.79
74675;BME280;63200;48.810;12.352;2023-03-22T07:32:02;97260.28;;;16.92;45.94
74675;BME280;63200;48.810;12.352;2023-03-22T07:34:28;97265.41;;;17.23;45.37
74675;BME280;63200;48.810;12.352;2023-03-22T07:36:53;97258.16;;;16.89;46.20
74675;BME280;63200;48.810;12.352;2023-03-22T07:39:21;97259.94;;;16.93;46.04
74675;BME280;63200;48.810;12.352;2023-03-22T07:41:48;97249.38;;;16.74;46.62
74675;BME280;63200;48.810;12.352;2023-03-22T07:44:14;97258.75;;;17.03;45.98
74675;BME280;63200;48.810;12.352;2023-03-22T07:46:39;97261.09;;;16.83;46.77
74675;BME280;63200;48.810;12.352;2023-03-22T07:49:05;97261.72;;;16.03;46.62
74675;BME280;63200;48.810;12.352;2023-03-22T07:51:30;97267.53;;;16.58;46.28
74675;BME280;63200;48.810;12.352;2023-03-22T07:53:55;97262.22;;;17.42;44.88
74675;BME280;63200;48.810;12.352;2023-03-22T07:56:21;97265.72;;;17.85;43.58
74675;BME280;63200;48.810;12.352;2023-03-22T07:58:46;97259.88;;;17.87;43.22
74675;BME280;63200;48.810;12.352;2023-03-22T08:01:11;97259.16;;;17.98;43.36
74675;BME280;63200;48.810;12.352;2023-03-22T08:03:37;97260.13;;;17.60;43.63
74675;BME280;63200;48.810;12.352;2023-03-22T08:06:04;97258.91;;;18.37;42.84
74675;BME280;63200;48.810;12.352;2023-03-22T08:08:32;97248.72;;;18.87;41.63
74675;BME280;63200;48.810;12.352;2023-03-22T08:10:57;97259.72;;;18.87;41.87
74675;BME280;63200;48.810;12.352;2023-03-22T08:13:22;97260.53;;;18.63;41.32
74675;BME280;63200;48.810;12.352;2023-03-22T08:15:48;97263.50;;;18.58;42.67
74675;BME280;63200;48.810;12.352;2023-03-22T08:18:13;97260.88;;;18.03;43.35
74675;BME280;63200;48.810;12.352;2023-03-22T08:20:39;97249.53;;;17.71;43.41
74675;BME280;63200;48.810;12.352;2023-03-22T08:23:04;97265.22;;;17.28;44.62
74675;BME280;63200;48.810;12.352;2023-03-22T08:25:32;97274.44;;;17.45;43.82
74675;BME280;63200;48.810;12.352;2023-03-22T08:27:57;97262.25;;;17.12;45.96
74675;BME280;63200;48.810;12.352;2023-03-22T08:30:23;97270.31;;;18.27;43.59
74675;BME280;63200;48.810;12.352;2023-03-22T08:32:49;97272.69;;;18.04;42.66
74675;BME280;63200;48.810;12.352;2023-03-22T08:35:14;97237.81;;;18.17;42.29
74675;BME280;63200;48.810;12.352;2023-03-22T08:37:40;97266.25;;;18.00;42.63
74675;BME280;63200;48.810;12.352;2023-03-22T08:40:06;97265.94;;;18.84;41.94
74675;BME280;63200;48.810;12.352;2023-03-22T08:42:33;97264.00;;;19.09;41.81
74675;BME280;63200;48.810;12.352;2023-03-22T08:44:59;97272.75;;;18.28;42.59
74675;BME280;63200;48.810;12.352;2023-03-22T08:47:24;97266.69;;;17.68;43.11
74675;BME280;63200;48.810;12.352;2023-03-22T08:49:50;97269.88;;;18.37;42.10
74675;BME280;63200;48.810;12.352;2023-03-22T08:52:15;97263.59;;;19.36;40.63
74675;BME280;63200;48.810;12.352;2023-03-22T08:54:40;97256.06;;;20.02;39.50
74675;BME280;63200;48.810;12.352;2023-03-22T08:57:06;97264.41;;;20.21;39.21
74675;BME280;63200;48.810;12.352;2023-03-22T08:59:33;97266.00;;;19.25;39.24
74675;BME280;63200;48.810;12.352;2023-03-22T09:01:59;97265.47;;;19.60;39.46
74675;BME280;63200;48.810;12.352;2023-03-22T09:04:24;97222.41;;;19.39;39.12
74675;BME280;63200;48.810;12.352;2023-03-22T09:06:50;97257.28;;;20.04;38.70
74675;BME280;63200;48.810;12.352;2023-03-22T09:09:16;97262.66;;;19.44;39.43
74675;BME280;63200;48.810;12.352;2023-03-22T09:11:41;97263.03;;;19.71;38.01
74675;BME280;63200;48.810;12.352;2023-03-22T09:14:08;97258.59;;;19.01;40.83
74675;BME280;63200;48.810;12.352;2023-03-22T09:16:34;97257.53;;;19.71;38.78
74675;BME280;63200;48.810;12.352;2023-03-22T09:18:59;97258.34;;;20.00;39.49
74675;BME280;63200;48.810;12.352;2023-03-22T09:21:25;97243.19;;;20.38;37.18
74675;BME280;63200;48.810;12.352;2023-03-22T09:23:51;97241.34;;;19.97;38.35
74675;BME280;63200;48.810;12.352;2023-03-22T09:26:16;97252.28;;;20.70;37.05
74675;BME280;63200;48.810;12.352;2023-03-22T09:28:42;97237.53;;;21.14;36.54
74675;BME280;63200;48.810;12.352;2023-03-22T09:31:09;97237.22;;;21.00;36.89
74675;BME280;63200;48.810;12.352;2023-03-22T09:33:38;97238.16;;;21.07;35.73
74675;BME280;63200;48.810;12.352;2023-03-22T09:36:05;97234.53;;;20.07;37.53
74675;BME280;63200;48.810;12.352;2023-03-22T09:38:31;97232.56;;;19.92;38.40
74675;BME280;63200;48.810;12.352;2023-03-22T09:41:00;97216.88;;;20.72;36.62
74675;BME280;63200;48.810;12.352;2023-03-22T09:43:29;97207.69;;;20.84;36.07
74675;BME280;63200;48.810;12.352;2023-03-22T09:45:57;97224.81;;;19.69;39.20
74675;BME280;63200;48.810;12.352;2023-03-22T09:48:28;97217.78;;;20.76;35.98
74675;BME280;63200;48.810;12.352;2023-03-22T09:50:55;97179.69;;;21.02;36.06
74675;BME280;63200;48.810;12.352;2023-03-22T09:53:23;97203.94;;;21.28;35.94
74675;BME280;63200;48.810;12.352;2023-03-22T09:58:46;97200.06;;;21.13;36.72
74675;BME280;63200;48.810;12.352;2023-03-22T10:06:39;97186.31;;;21.17;36.64
74675;BME280;63200;48.810;12.352;2023-03-22T10:09:14;97168.41;;;21.26;35.08
74675;BME280;63200;48.810;12.352;2023-03-22T10:14:50;97191.31;;;21.66;34.88
74675;BME280;63200;48.810;12.352;2023-03-22T10:17:22;97190.25;;;21.94;34.07
74675;BME280;63200;48.810;12.352;2023-03-22T10:20:18;97192.44;;;21.45;34.53
74675;BME280;63200;48.810;12.352;2023-03-22T10:22:46;97185.09;;;22.16;34.00
74675;BME280;63200;48.810;12.352;2023-03-22T10:25:16;97184.28;;;21.13;35.84
74675;BME280;63200;48.810;12.352;2023-03-22T10:27:43;97158.69;;;21.95;34.38
74675;BME280;63200;48.810;12.352;2023-03-22T10:30:22;97185.47;;;22.60;33.23
74675;BME280;63200;48.810;12.352;2023-03-22T10:32:54;97176.63;;;21.62;35.46
74675;BME280;63200;48.810;12.352;2023-03-22T10:35:24;97171.16;;;21.26;35.17
74675;BME280;63200;48.810;12.352;2023-03-22T10:37:51;97176.03;;;20.78;34.81
74675;BME280;63200;48.810;12.352;2023-03-22T10:40:26;97168.66;;;21.80;32.72
74675;BME280;63200;48.810;12.352;2023-03-22T10:42:58;97181.63;;;21.76;33.71
74675;BME280;63200;48.810;12.352;2023-03-22T10:45:25;97172.09;;;21.73;33.24
74675;BME280;63200;48.810;12.352;2023-03-22T10:50:25;97174.06;;;20.62;34.65
74675;BME280;63200;48.810;12.352;2023-03-22T10:53:05;97179.13;;;21.12;34.83
74675;BME280;63200;48.810;12.352;2023-03-22T10:55:38;97165.81;;;20.78;34.01
74675;BME280;63200;48.810;12.352;2023-03-22T10:58:18;97166.50;;;20.75;36.35
74675;BME280;63200;48.810;12.352;2023-03-22T11:00:49;97163.28;;;21.87;32.82
74675;BME280;63200;48.810;12.352;2023-03-22T11:06:22;97154.75;;;21.96;31.38
74675;BME280;63200;48.810;12.352;2023-03-22T11:08:48;97166.63;;;20.31;31.74
74675;BME280;63200;48.810;12.352;2023-03-22T11:11:21;97167.84;;;20.82;32.00
74675;BME280;63200;48.810;12.352;2023-03-22T11:16:21;97157.75;;;20.38;33.70
74675;BME280;63200;48.810;12.352;2023-03-22T11:18:47;97157.72;;;21.05;32.47
74675;BME280;63200;48.810;12.352;2023-03-22T11:21:14;97156.91;;;20.37;32.75
74675;BME280;63200;48.810;12.352;2023-03-22T11:23:49;97151.00;;;20.19;35.03
74675;BME280;63200;48.810;12.352;2023-03-22T11:26:25;97145.00;;;20.33;32.82
74675;BME280;63200;48.810;12.352;2023-03-22T11:28:50;97138.25;;;20.30;34.60
74675;BME280;63200;48.810;12.352;2023-03-22T11:31:18;97136.50;;;21.29;35.07
74675;BME280;63200;48.810;12.352;2023-03-22T11:33:56;97139.03;;;20.63;35.23
74675;BME280;63200;48.810;12.352;2023-03-22T11:36:21;97133.88;;;20.97;33.14
74675;BME280;63200;48.810;12.352;2023-03-22T11:38:47;97120.72;;;21.49;32.72
74675;BME280;63200;48.810;12.352;2023-03-22T11:41:20;97130.63;;;21.30;32.98
74675;BME280;63200;48.810;12.352;2023-03-22T11:43:50;97126.06;;;21.58;33.43
74675;BME280;63200;48.810;12.352;2023-03-22T11:46:17;97117.34;;;22.79;30.26
74675;BME280;63200;48.810;12.352;2023-03-22T11:48:45;97096.22;;;21.90;32.18
74675;BME280;63200;48.810;12.352;2023-03-22T11:51:13;97110.34;;;21.03;33.22
74675;BME280;63200;48.810;12.352;2023-03-22T11:53:41;97091.66;;;20.77;34.50
74675;BME280;63200;48.810;12.352;2023-03-22T11:56:10;97104.81;;;21.62;33.06
74675;BME280;63200;48.810;12.352;2023-03-22T12:01:17;97102.66;;;21.32;32.28
74675;BME280;63200;48.810;12.352;2023-03-22T12:03:47;97091.66;;;20.41;34.83
74675;BME280;63200;48.810;12.352;2023-03-22T12:06:25;97093.25;;;20.78;33.01
74675;BME280;63200;48.810;12.352;2023-03-22T12:08:55;97085.50;;;21.23;33.14
74675;BME280;63200;48.810;12.352;2023-03-22T12:11:39;97077.69;;;21.68;33.38
74675;BME280;63200;48.810;12.352;2023-03-22T12:14:15;97081.66;;;21.27;32.55
74675;BME280;63200;48.810;12.352;2023-03-22T12:16:49;97073.56;;;21.81;32.18
74675;BME280;63200;48.810;12.352;2023-03-22T12:21:52;97073.19;;;21.59;32.40
74675;BME280;63200;48.810;12.352;2023-03-22T12:24:30;97058.00;;;21.50;32.77
74675;BME280;63200;48.810;12.352;2023-03-22T12:26:59;97068.91;;;21.85;32.32
74675;BME280;63200;48.810;12.352;2023-03-22T12:29:29;97055.31;;;22.50;31.36
74675;BME280;63200;48.810;12.352;2023-03-22T12:32:00;97045.53;;;22.90;30.06
74675;BME280;63200;48.810;12.352;2023-03-22T12:34:47;97053.03;;;22.05;31.20
74675;BME280;63200;48.810;12.352;2023-03-22T12:37:33;97053.00;;;22.55;30.49
74675;BME280;63200;48.810;12.352;2023-03-22T12:40:04;97040.94;;;23.01;31.51
74675;BME280;63200;48.810;12.352;2023-03-22T12:42:50;97044.03;;;22.96;29.57
74675;BME280;63200;48.810;12.352;2023-03-22T12:47:55;97043.03;;;21.51;31.16
74675;BME280;63200;48.810;12.352;2023-03-22T12:50:30;97033.63;;;22.28;31.90
74675;BME280;63200;48.810;12.352;2023-03-22T12:52:58;97040.66;;;21.95;30.58
74675;BME280;63200;48.810;12.352;2023-03-22T12:57:54;97034.81;;;21.77;31.07
74675;BME280;63200;48.810;12.352;2023-03-22T13:00:25;97033.19;;;21.53;31.48
74675;BME280;63200;48.810;12.352;2023-03-22T13:02:58;97039.88;;;22.22;31.04
74675;BME280;63200;48.810;12.352;2023-03-22T13:05:28;97025.00;;;22.60;32.25
74675;BME280;63200;48.810;12.352;2023-03-22T13:07:54;97023.28;;;21.95;29.62
74675;BME280;63200;48.810;12.352;2023-03-22T13:26:44;97013.78;;;21.96;30.39
74675;BME280;63200;48.810;12.352;2023-03-22T13:32:31;97012.56;;;21.24;31.57
74675;BME280;63200;48.810;12.352;2023-03-22T13:34:45;97010.59;;;21.24;31.92
74675;BME280;63200;48.810;12.352;2023-03-22T13:39:58;97010.13;;;20.60;30.79
74675;BME280;63200;48.810;12.352;2023-03-22T13:42:35;97008.84;;;20.73;31.67
74675;BME280;63200;48.810;12.352;2023-03-22T13:45:01;97003.69;;;20.72;31.53
74675;BME280;63200;48.810;12.352;2023-03-22T13:47:36;96997.31;;;21.30;31.81
74675;BME280;63200;48.810;12.352;2023-03-22T13:50:09;97000.00;;;21.50;32.02
74675;BME280;63200;48.810;12.352;2023-03-22T13:52:40;96989.19;;;21.18;31.53
74675;BME280;63200;48.810;12.352;2023-03-22T13:58:01;96985.63;;;21.87;30.18
74675;BME280;63200;48.810;12.352;2023-03-22T14:02:57;96970.22;;;22.39;29.79
74675;BME280;63200;48.810;12.352;2023-03-22T14:05:27;96940.53;;;21.33;29.47
74675;BME280;63200;48.810;12.352;2023-03-22T14:07:55;96980.94;;;21.64;30.20
74675;BME280;63200;48.810;12.352;2023-03-22T14:10:43;96961.78;;;20.86;30.30
74675;BME280;63200;48.810;12.352;2023-03-22T14:13:25;96978.41;;;21.09;30.88
74675;BME280;63200;48.810;12.352;2023-03-22T14:15:54;96979.97;;;21.10;31.08
74675;BME280;63200;48.810;12.352;2023-03-22T14:18:29;96967.81;;;20.33;31.17
74675;BME280;63200;48.810;12.352;2023-03-22T14:21:00;96969.66;;;20.09;32.01
74675;BME280;63200;48.810;12.352;2023-03-22T14:23:39;96974.63;;;20.58;32.49
74675;BME280;63200;48.810;12.352;2023-03-22T14:26:18;96972.22;;;20.57;31.91
74675;BME280;63200;48.810;12.352;2023-03-22T14:28:46;96969.25;;;20.66;31.33
74675;BME280;63200;48.810;12.352;2023-03-22T14:31:26;96969.19;;;20.62;32.17
74675;BME280;63200;48.810;12.352;2023-03-22T14:33:53;96966.06;;;20.44;30.63
74675;BME280;63200;48.810;12.352;2023-03-22T14:36:20;96943.56;;;19.87;31.54